createdAt,value
2019-03-06T00:01:28.624Z,34.85
2019-03-06T00:04:23.671Z,39.87
2019-03-06T00:07:20.128Z,39.67
2019-03-06T00:10:15.596Z,29.97
2019-03-06T00:13:12.099Z,29.13
2019-03-06T00:16:07.614Z,42.50
2019-03-06T00:19:04.167Z,44.77
2019-03-06T00:22:00.657Z,31.57
2019-03-06T00:24:56.901Z,34.60
2019-03-06T00:27:51.839Z,40.03
2019-03-06T00:30:48.221Z,39.10
2019-03-06T00:33:43.713Z,31.47
2019-03-06T00:36:41.359Z,12.93
2019-03-06T00:39:40.066Z,39.70
2019-03-06T00:42:37.318Z,34.00
2019-03-06T00:45:34.056Z,32.07
2019-03-06T00:48:29.478Z,32.43
2019-03-06T00:51:25.923Z,38.60
2019-03-06T00:54:22.059Z,33.30
2019-03-06T00:57:18.548Z,50.43
2019-03-06T01:00:14.309Z,40.80
2019-03-06T01:03:11.704Z,41.97
2019-03-06T01:06:07.214Z,41.80
2019-03-06T01:09:04.536Z,40.53
2019-03-06T01:12:00.254Z,40.20
2019-03-06T01:14:55.982Z,43.30
2019-03-06T01:17:51.052Z,29.93
2019-03-06T01:20:48.626Z,37.90
2019-03-06T01:23:44.950Z,41.17
2019-03-06T01:26:40.419Z,35.55
2019-03-06T01:29:37.935Z,36.80
2019-03-06T01:32:33.307Z,27.37
2019-03-06T01:35:42.292Z,38.83
2019-03-06T01:38:55.516Z,45.10
2019-03-06T01:42:04.934Z,39.10
2019-03-06T01:45:03.500Z,32.43
2019-03-06T01:48:01.216Z,36.03
2019-03-06T01:50:58.367Z,18.17
2019-03-06T01:53:55.446Z,36.58
2019-03-06T01:56:52.952Z,44.37
2019-03-06T01:59:48.743Z,39.67
2019-03-06T02:02:45.212Z,44.37
2019-03-06T02:05:40.562Z,37.70
2019-03-06T02:08:37.070Z,40.87
2019-03-06T02:11:33.586Z,32.70
2019-03-06T02:14:30.231Z,48.80
2019-03-06T02:17:26.027Z,37.30
2019-03-06T02:20:22.464Z,44.87
2019-03-06T02:23:19.021Z,35.97
2019-03-06T02:26:15.575Z,35.57
2019-03-06T02:29:11.049Z,47.73
2019-03-06T02:32:08.589Z,42.47
2019-03-06T02:35:04.254Z,39.83
2019-03-06T02:38:00.632Z,42.77
2019-03-06T02:40:59.719Z,50.85
2019-03-06T02:43:54.979Z,48.33
2019-03-06T02:46:51.073Z,42.37
2019-03-06T02:49:46.629Z,41.23
2019-03-06T02:52:43.147Z,49.13
2019-03-06T02:55:38.617Z,48.27
2019-03-06T02:58:50.219Z,40.90
2019-03-06T03:02:15.518Z,45.77
2019-03-06T03:05:26.342Z,60.37
2019-03-06T03:08:23.247Z,16.90
2019-03-06T03:11:19.944Z,49.67
2019-03-06T03:14:16.458Z,49.77
2019-03-06T03:17:11.981Z,29.77
2019-03-06T03:20:08.414Z,52.80
2019-03-06T03:23:03.830Z,63.67
2019-03-06T03:26:00.693Z,60.80
2019-03-06T03:28:57.217Z,18.33
2019-03-06T03:31:53.957Z,39.97
2019-03-06T03:34:50.456Z,19.80
2019-03-06T03:37:46.156Z,55.50
2019-03-06T03:40:44.795Z,15.33
2019-03-06T03:43:40.320Z,32.47
2019-03-06T03:46:36.905Z,26.57
2019-03-06T03:49:32.259Z,22.80
2019-03-06T03:52:29.689Z,23.13
2019-03-06T03:55:25.325Z,24.13
2019-03-06T03:58:21.859Z,18.87
2019-03-06T04:01:18.336Z,18.17
2019-03-06T04:04:15.580Z,31.00
2019-03-06T04:07:11.210Z,27.47
2019-03-06T04:10:07.673Z,21.57
2019-03-06T04:13:04.964Z,32.67
2019-03-06T04:16:01.349Z,23.03
2019-03-06T04:18:57.025Z,30.80
2019-03-06T04:21:54.532Z,28.73
2019-03-06T04:24:51.111Z,34.77
2019-03-06T04:27:47.469Z,18.00
2019-03-06T04:30:42.878Z,26.62
2019-03-06T04:33:39.392Z,24.03
2019-03-06T04:36:34.845Z,23.80
2019-03-06T04:39:31.524Z,29.57
2019-03-06T04:42:29.256Z,30.27
2019-03-06T04:45:25.742Z,33.70
2019-03-06T04:48:20.811Z,43.20
2019-03-06T04:51:17.244Z,31.40
2019-03-06T04:54:12.673Z,37.27
2019-03-06T04:57:09.364Z,32.77
2019-03-06T05:00:06.088Z,39.00
2019-03-06T05:03:02.164Z,40.00
2019-03-06T05:05:58.698Z,29.23
2019-03-06T05:08:55.427Z,44.88
2019-03-06T05:11:51.939Z,87.77
2019-03-06T05:14:47.902Z,37.37
2019-03-06T05:17:49.981Z,62.03
2019-03-06T05:20:45.442Z,39.37
2019-03-06T05:23:42.915Z,70.77
2019-03-06T05:26:38.404Z,34.83
2019-03-06T05:29:35.515Z,36.42
2019-03-06T05:32:48.927Z,59.07
2019-03-06T05:36:29.063Z,189.07
2019-03-06T05:39:32.128Z,128.23
2019-03-06T05:42:29.597Z,85.70
2019-03-06T05:45:26.074Z,75.00
2019-03-06T05:48:21.601Z,73.90
2019-03-06T05:51:18.343Z,70.93
2019-03-06T05:54:15.213Z,44.70
2019-03-06T05:57:11.978Z,54.73
2019-03-06T06:00:08.265Z,78.37
2019-03-06T06:03:05.013Z,57.13
2019-03-06T06:06:03.057Z,56.73
2019-03-06T06:08:58.523Z,72.87
2019-03-06T06:11:56.512Z,41.63
2019-03-06T06:14:53.006Z,97.63
2019-03-06T06:17:49.610Z,44.83
2019-03-06T06:20:45.069Z,37.87
2019-03-06T06:24:02.923Z,50.73
2019-03-06T06:26:58.307Z,97.80
2019-03-06T06:29:56.867Z,93.57
2019-03-06T06:32:53.401Z,72.75
2019-03-06T06:35:48.946Z,32.97
2019-03-06T06:38:45.435Z,96.83
2019-03-06T06:41:41.096Z,447.70
2019-03-06T06:44:38.177Z,199.63
2019-03-06T06:47:32.898Z,62.00
2019-03-06T06:50:29.400Z,92.17
2019-03-06T06:53:53.971Z,206.63
2019-03-06T06:57:28.080Z,214.33
2019-03-06T07:00:56.302Z,313.63
2019-03-06T07:05:11.230Z,180.23
2019-03-06T07:08:19.358Z,495.30
2019-03-06T07:11:28.192Z,207.80
2019-03-06T07:14:47.203Z,156.07
2019-03-06T07:17:56.100Z,170.40
2019-03-06T07:21:09.588Z,407.80
2019-03-06T07:24:19.866Z,144.30
2019-03-06T07:27:30.756Z,88.70
2019-03-06T07:30:39.849Z,81.77
2019-03-06T07:34:03.386Z,169.13
2019-03-06T07:37:06.686Z,321.60
2019-03-06T07:40:17.544Z,427.40
2019-03-06T07:43:28.261Z,561.97
2019-03-06T07:46:33.009Z,245.10
2019-03-06T07:49:45.453Z,305.33
2019-03-06T07:52:44.298Z,30.77
2019-03-06T07:55:53.793Z,210.63
2019-03-06T07:59:06.880Z,82.35
2019-03-06T08:02:10.816Z,103.60
2019-03-06T08:05:14.827Z,287.70
2019-03-06T08:08:12.642Z,383.95
2019-03-06T08:11:12.720Z,245.80
2019-03-06T08:14:22.382Z,101.60
2019-03-06T08:17:29.898Z,106.58
2019-03-06T08:20:39.459Z,80.70
2019-03-06T08:23:53.635Z,526.20
2019-03-06T08:26:49.132Z,108.03
2019-03-06T08:29:45.733Z,46.95
2019-03-06T08:32:42.839Z,64.83
2019-03-06T08:35:39.735Z,65.90
2019-03-06T08:38:36.281Z,26.67
2019-03-06T08:41:31.828Z,26.77
2019-03-06T08:44:28.578Z,188.77
2019-03-06T08:47:40.229Z,20.33
2019-03-06T08:50:49.478Z,163.63
2019-03-06T08:53:49.885Z,22.17
2019-03-06T08:56:53.090Z,20.23
2019-03-06T09:00:12.036Z,74.22
2019-03-06T09:03:37.180Z,20.43
2019-03-06T09:07:02.707Z,159.43
2019-03-06T09:10:14.447Z,40.40
2019-03-06T09:13:24.940Z,66.53
2019-03-06T09:16:30.725Z,260.73
2019-03-06T09:19:57.098Z,21.30
2019-03-06T09:23:23.366Z,74.23
2019-03-06T09:26:22.105Z,12.10
2019-03-06T09:29:36.429Z,254.17
2019-03-06T09:32:43.105Z,37.23
2019-03-06T09:36:06.623Z,46.37
2019-03-06T09:39:33.639Z,69.40
2019-03-06T09:42:51.785Z,35.47
2019-03-06T09:46:06.392Z,26.53
2019-03-06T09:49:20.184Z,10.98
2019-03-06T09:52:29.842Z,39.20
2019-03-06T09:55:41.769Z,15.03
2019-03-06T09:58:53.168Z,29.43
2019-03-06T10:02:07.280Z,20.10
2019-03-06T10:05:19.918Z,44.57
2019-03-06T10:08:36.550Z,61.70
2019-03-06T10:11:44.010Z,11.43
2019-03-06T10:18:31.827Z,11.43
2019-03-06T10:21:27.566Z,14.47
2019-03-06T10:24:24.044Z,8.90
2019-03-06T10:27:19.782Z,11.43
2019-03-06T10:30:15.652Z,58.30
2019-03-06T10:33:14.719Z,3.10
2019-03-06T10:36:11.237Z,10.87
2019-03-06T10:39:08.002Z,4.97
2019-03-06T10:42:04.004Z,4.33
2019-03-06T10:45:00.264Z,18.40
2019-03-06T10:47:55.919Z,3.10
2019-03-06T10:50:52.751Z,14.03
2019-03-06T10:53:48.257Z,2.90
2019-03-06T10:56:43.901Z,23.60
2019-03-06T10:59:39.615Z,4.27
2019-03-06T11:02:36.428Z,3.40
2019-03-06T11:05:36.066Z,3.03
2019-03-06T11:08:44.245Z,15.90
2019-03-06T11:11:46.992Z,13.13
2019-03-06T11:14:44.632Z,3.33
2019-03-06T11:17:42.097Z,9.20
2019-03-06T11:20:40.839Z,4.17
2019-03-06T11:23:36.607Z,10.03
2019-03-06T11:26:32.248Z,3.20
2019-03-06T11:29:28.943Z,3.67
2019-03-06T11:32:24.469Z,4.00
2019-03-06T11:35:20.948Z,3.50
2019-03-06T11:38:16.647Z,6.30
2019-03-06T11:41:13.374Z,11.93
2019-03-06T11:44:09.172Z,3.70
2019-03-06T11:47:05.910Z,4.27
2019-03-06T11:50:01.663Z,3.20
2019-03-06T11:52:58.403Z,6.58
2019-03-06T11:55:54.261Z,12.47
2019-03-06T11:58:51.640Z,10.40
2019-03-06T12:01:48.327Z,4.07
2019-03-06T12:04:42.821Z,3.93
2019-03-06T12:07:39.335Z,4.10
2019-03-06T12:10:35.886Z,14.10
2019-03-06T12:13:33.433Z,8.10
2019-03-06T12:16:28.804Z,16.63
2019-03-06T12:19:27.387Z,4.87
2019-03-06T12:22:22.853Z,9.13
2019-03-06T12:25:18.732Z,5.67
2019-03-06T12:28:15.111Z,4.50
2019-03-06T12:31:11.651Z,7.43
2019-03-06T12:34:07.011Z,37.10
2019-03-06T12:37:03.529Z,13.10
2019-03-06T12:40:01.192Z,4.93
2019-03-06T12:42:56.671Z,5.50
2019-03-06T12:45:53.479Z,4.90
2019-03-06T12:48:49.980Z,5.03
2019-03-06T12:51:54.105Z,7.77
2019-03-06T12:54:41.880Z,11.50
2019-03-06T12:57:38.661Z,10.70
2019-03-06T13:00:51.865Z,11.70
2019-03-06T13:03:48.048Z,5.67
2019-03-06T13:06:43.725Z,7.40
2019-03-06T13:09:41.231Z,5.70
2019-03-06T13:12:38.306Z,7.93
2019-03-06T13:15:36.943Z,7.63
2019-03-06T13:18:35.953Z,5.80
2019-03-06T13:21:32.672Z,5.93
2019-03-06T13:24:35.469Z,7.63
2019-03-06T13:27:32.832Z,7.17
2019-03-06T13:30:29.097Z,7.20
2019-03-06T13:33:43.689Z,5.83
2019-03-06T13:36:39.565Z,14.67
2019-03-06T13:39:38.284Z,6.73
2019-03-06T13:42:33.712Z,6.70
2019-03-06T13:45:30.276Z,7.93
2019-03-06T13:48:25.322Z,6.83
2019-03-06T13:51:21.384Z,11.13
2019-03-06T13:54:16.864Z,16.00
2019-03-06T13:57:13.447Z,8.10
2019-03-06T14:00:10.234Z,11.07
2019-03-06T14:03:07.582Z,6.15
2019-03-06T14:06:03.080Z,9.70
2019-03-06T14:09:02.108Z,7.05
2019-03-06T14:11:58.494Z,8.60
2019-03-06T14:14:54.236Z,6.83
2019-03-06T14:17:53.923Z,9.93
2019-03-06T14:20:49.812Z,44.87
2019-03-06T14:23:46.341Z,7.20
2019-03-06T14:26:41.835Z,8.23
2019-03-06T14:29:39.605Z,39.70
2019-03-06T14:32:35.170Z,6.12
2019-03-06T14:35:31.592Z,6.63
2019-03-06T14:38:27.104Z,9.60
2019-03-06T14:41:24.810Z,24.82
2019-03-06T14:44:21.383Z,7.43
2019-03-06T14:47:17.138Z,5.70
2019-03-06T14:50:14.732Z,19.67
2019-03-06T14:53:11.696Z,26.60
2019-03-06T14:56:09.478Z,7.10
2019-03-06T14:59:04.909Z,7.37
2019-03-06T15:02:01.645Z,7.23
2019-03-06T15:04:57.366Z,9.00
2019-03-06T15:07:53.049Z,7.63
2019-03-06T15:10:49.487Z,7.50
2019-03-06T15:13:46.274Z,8.28
2019-03-06T15:16:45.369Z,10.47
2019-03-06T15:19:43.128Z,6.40
2019-03-06T15:22:38.963Z,7.43
2019-03-06T15:25:36.284Z,7.60
2019-03-06T15:28:32.850Z,5.73
2019-03-06T15:31:29.609Z,10.23
2019-03-06T15:34:26.241Z,6.90
2019-03-06T15:37:28.333Z,7.17
2019-03-06T15:40:26.113Z,7.87
2019-03-06T15:43:21.351Z,7.70
2019-03-06T15:46:17.825Z,14.73
2019-03-06T15:49:13.562Z,6.20
2019-03-06T15:52:11.087Z,7.00
2019-03-06T15:55:07.704Z,102.37
2019-03-06T15:58:03.981Z,6.43
2019-03-06T16:01:01.719Z,7.70
2019-03-06T16:03:57.450Z,6.40
2019-03-06T16:06:54.270Z,8.33
2019-03-06T16:09:49.258Z,5.67
2019-03-06T16:12:46.276Z,5.50
2019-03-06T16:15:43.003Z,6.33
2019-03-06T16:18:39.763Z,10.03
2019-03-06T16:21:37.586Z,6.08
2019-03-06T16:24:37.631Z,8.45
2019-03-06T16:27:38.118Z,5.60
2019-03-06T16:30:32.599Z,6.95
2019-03-06T16:33:28.853Z,5.33
2019-03-06T16:36:23.865Z,9.03
2019-03-06T16:39:20.587Z,6.93
2019-03-06T16:42:17.306Z,7.63
2019-03-06T16:45:14.054Z,4.50
2019-03-06T16:48:09.776Z,4.90
2019-03-06T16:51:07.590Z,6.50
2019-03-06T16:54:02.776Z,6.50
2019-03-06T16:56:58.902Z,4.90
2019-03-06T16:59:53.998Z,4.73
2019-03-06T17:02:51.831Z,6.40
2019-03-06T17:05:48.460Z,5.40
2019-03-06T17:08:43.989Z,4.83
2019-03-06T17:11:41.954Z,6.40
2019-03-06T17:14:37.800Z,5.07
2019-03-06T17:17:41.556Z,5.13
2019-03-06T17:20:39.288Z,6.78
2019-03-06T17:23:38.180Z,6.40
2019-03-06T17:26:34.007Z,6.85
2019-03-06T17:29:34.158Z,4.90
2019-03-06T17:32:34.724Z,3.97
2019-03-06T17:35:30.711Z,4.90
2019-03-06T17:38:25.807Z,4.60
2019-03-06T17:41:22.478Z,6.10
2019-03-06T17:44:18.102Z,4.80
2019-03-06T17:47:15.565Z,4.70
2019-03-06T17:50:11.945Z,5.42
2019-03-06T17:53:10.227Z,9.07
2019-03-06T17:56:06.764Z,4.10
2019-03-06T17:59:03.321Z,5.53
2019-03-06T18:01:59.133Z,5.07
2019-03-06T18:04:54.662Z,5.47
2019-03-06T18:07:51.484Z,6.60
2019-03-06T18:10:46.979Z,5.73
2019-03-06T18:13:44.379Z,7.47
2019-03-06T18:16:39.903Z,16.40
2019-03-06T18:19:36.401Z,6.77
2019-03-06T18:22:32.041Z,6.70
2019-03-06T18:25:30.292Z,7.90
2019-03-06T18:28:25.742Z,6.20
2019-03-06T18:31:22.325Z,6.33
2019-03-06T18:34:19.725Z,4.83
2019-03-06T18:37:14.727Z,5.33
2019-03-06T18:40:11.272Z,10.60
2019-03-06T18:43:07.890Z,8.60
2019-03-06T18:46:04.237Z,9.40
2019-03-06T18:48:59.244Z,11.23
2019-03-06T18:51:56.925Z,11.30
2019-03-06T18:54:52.491Z,13.40
2019-03-06T18:57:49.177Z,8.18
2019-03-06T19:00:44.683Z,6.58
2019-03-06T19:03:42.195Z,6.77
2019-03-06T19:06:37.783Z,5.43
2019-03-06T19:09:35.195Z,5.50
2019-03-06T19:12:30.665Z,5.03
2019-03-06T19:15:28.457Z,5.50
2019-03-06T19:18:24.124Z,9.40
2019-03-06T19:21:22.722Z,10.23
2019-03-06T19:24:17.574Z,11.40
2019-03-06T19:27:14.405Z,7.45
2019-03-06T19:30:09.974Z,6.40
2019-03-06T19:33:06.321Z,6.97
2019-03-06T19:36:02.357Z,7.77
2019-03-06T19:38:58.169Z,7.60
2019-03-06T19:41:55.196Z,9.30
2019-03-06T19:44:52.912Z,11.77
2019-03-06T19:47:50.736Z,10.63
2019-03-06T19:50:46.284Z,12.70
2019-03-06T19:53:43.975Z,10.63
2019-03-06T19:56:39.577Z,10.53
2019-03-06T19:59:37.186Z,10.90
2019-03-06T20:02:32.631Z,12.43
2019-03-06T20:05:30.227Z,11.83
2019-03-06T20:08:25.738Z,10.70
2019-03-06T20:11:22.661Z,11.57
2019-03-06T20:14:19.977Z,10.70
2019-03-06T20:17:15.323Z,9.73
2019-03-06T20:20:12.439Z,10.20
2019-03-06T20:23:07.428Z,8.80
2019-03-06T20:26:13.819Z,11.13
2019-03-06T20:29:03.092Z,10.00
2019-03-06T20:32:01.472Z,8.83
2019-03-06T20:34:58.331Z,8.43
2019-03-06T20:37:55.416Z,9.10
2019-03-06T20:40:52.489Z,7.47
2019-03-06T20:43:48.598Z,9.53
2019-03-06T20:46:45.490Z,8.73
2019-03-06T20:49:41.442Z,9.77
2019-03-06T20:52:37.712Z,8.53
2019-03-06T20:55:35.341Z,7.43
2019-03-06T20:58:32.169Z,8.00
2019-03-06T21:01:28.102Z,8.60
2019-03-06T21:04:24.835Z,9.30
2019-03-06T21:07:21.925Z,10.00
2019-03-06T21:10:17.896Z,7.50
2019-03-06T21:13:14.020Z,11.03
2019-03-06T21:16:10.338Z,10.17
2019-03-06T21:19:07.579Z,11.47
2019-03-06T21:22:03.554Z,12.50
2019-03-06T21:25:00.383Z,10.07
2019-03-06T21:27:55.899Z,10.87
2019-03-06T21:30:53.716Z,11.47
2019-03-06T21:33:49.668Z,12.43
2019-03-06T21:36:47.465Z,10.00
2019-03-06T21:39:44.178Z,11.65
2019-03-06T21:42:41.924Z,10.90
2019-03-06T21:45:40.514Z,12.28
2019-03-06T21:48:36.546Z,10.70
2019-03-06T21:51:33.186Z,13.30
2019-03-06T21:54:30.027Z,12.33
2019-03-06T21:57:28.926Z,12.93
2019-03-06T22:00:26.328Z,11.10
2019-03-06T22:03:24.792Z,26.40
2019-03-06T22:06:24.895Z,27.20
2019-03-06T22:09:20.978Z,21.00
2019-03-06T22:12:16.451Z,18.43
2019-03-06T22:15:13.004Z,20.30
2019-03-06T22:18:09.191Z,23.12
2019-03-06T22:21:05.797Z,22.43
2019-03-06T22:24:01.365Z,19.50
2019-03-06T22:26:58.892Z,18.73
2019-03-06T22:29:54.632Z,19.27
2019-03-06T22:32:52.243Z,20.00
2019-03-06T22:35:48.814Z,19.10
2019-03-06T22:38:44.541Z,16.23
2019-03-06T22:41:42.122Z,16.00
2019-03-06T22:44:37.576Z,19.00
2019-03-06T22:47:35.138Z,17.80
2019-03-06T22:50:31.539Z,19.40
2019-03-06T22:53:28.408Z,15.03
2019-03-06T22:56:24.875Z,17.27
2019-03-06T22:59:21.312Z,17.83
2019-03-06T23:02:17.107Z,18.70
2019-03-06T23:05:13.096Z,21.13
2019-03-06T23:08:09.173Z,16.53
2019-03-06T23:11:07.401Z,18.10
2019-03-06T23:14:04.293Z,19.20
2019-03-06T23:17:01.832Z,15.40
2019-03-06T23:19:58.374Z,16.57
2019-03-06T23:22:54.084Z,22.87
2019-03-06T23:25:50.530Z,20.37
2019-03-06T23:28:46.284Z,19.30
2019-03-06T23:31:42.535Z,15.60
2019-03-06T23:34:39.003Z,17.87
2019-03-06T23:37:36.483Z,19.40
2019-03-06T23:40:32.034Z,17.37
2019-03-06T23:43:29.814Z,18.07
2019-03-06T23:46:26.528Z,17.48
2019-03-06T23:49:21.992Z,20.77
2019-03-06T23:52:42.402Z,21.87
2019-03-06T23:55:37.904Z,20.83
2019-03-06T23:58:35.668Z,24.27
